OOCL Kaohsiung — 9V9830 — position and weather

sailwx.info

Track history (hours):
 
Tides and Currents Weather Stations Pressure Air Temp Water Temp Dewpoint Dewpoint Depression Visibility Wind Speed Wind Dir Waves Ship Positions

OOCL Kaohsiung

Last reported at 2014-Jul-18 07:28 UTC. Time now 2014-Jul-24 21:43 UTC.
Position N 01°12' E 103°50'.

Length 280 m; draft 13 m.

Type: Cargo ship. MMSI: 566389000.

Date/timePositionNaut miles runAvg speedWind from/ knotsBaromVisibWave heightAir tempDewpointWater temp
2014-Jul-18 07:28N 01°12' E 103°50'4 0.4
2014-Jul-17 19:33N 01°15' E 103°51'1 0.5
2014-Jul-17 18:29N 01°16' E 103°51'0 0.0
2014-Jul-17 17:29N 01°16' E 103°51'0 0.0
2014-Jul-17 16:32N 01°16' E 103°51'0 0.0
2014-Jul-17 15:32N 01°16' E 103°51'0 0.0
2014-Jul-17 14:32N 01°16' E 103°51'0 0.0
2014-Jul-17 13:32N 01°16' E 103°51'0 0.0
2014-Jul-17 12:26N 01°16' E 103°51'0 0.0
2014-Jul-17 11:32N 01°16' E 103°51'0 0.0
2014-Jul-17 10:17N 01°16' E 103°51'0 0.0
2014-Jul-17 09:32N 01°16' E 103°51'0 0.0
2014-Jul-17 08:32N 01°16' E 103°51'0 0.0
2014-Jul-17 07:32N 01°16' E 103°51'0 0.0
2014-Jul-17 06:32N 01°16' E 103°51'0 0.0
2014-Jul-17 05:32N 01°16' E 103°51'0 0.0
2014-Jul-17 04:32N 01°16' E 103°51'0 0.0
2014-Jul-17 03:32N 01°16' E 103°51'0 0.0
2014-Jul-17 02:32N 01°16' E 103°51'0 0.0
2014-Jul-17 01:32N 01°16' E 103°51'0 0.0
2014-Jul-17 00:32N 01°16' E 103°51'0 0.0
2014-Jul-16 23:32N 01°16' E 103°51'0 0.0
2014-Jul-16 22:32N 01°16' E 103°51'0 0.0
2014-Jul-16 21:32N 01°16' E 103°51'0 0.1
2014-Jul-16 20:33N 01°16' E 103°51'4 3.8
2014-Jul-16 19:33N 01°14' E 103°54'6 6.1
2014-Jul-16 18:33N 01°16' E 104°00'8 7.6
2014-Jul-16 17:33N 01°17' E 104°08'  
Track history (hours):
 
Tides and Currents Weather Stations Pressure Air Temp Water Temp Dewpoint Dewpoint Depression Visibility Wind Speed Wind Dir Waves Ship Positions

OOCL Kaohsiung

Last reported at 2014-Jul-18 07:28 UTC. Time now 2014-Jul-24 21:43 UTC.
Position N 01°12' E 103°50'.

Length 280 m; draft 13 m.

Type: Cargo ship. MMSI: 566389000.

Date/timePositionNaut miles runAvg speedWind from/ knotsBaromVisibWave heightAir tempDewpointWater temp
2014-Jul-18 07:28N 01°12' E 103°50'4 0.4
2014-Jul-17 19:33N 01°15' E 103°51'1 0.5
2014-Jul-17 18:29N 01°16' E 103°51'0 0.0
2014-Jul-17 17:29N 01°16' E 103°51'0 0.0
2014-Jul-17 16:32N 01°16' E 103°51'0 0.0
2014-Jul-17 15:32N 01°16' E 103°51'0 0.0
2014-Jul-17 14:32N 01°16' E 103°51'0 0.0
2014-Jul-17 13:32N 01°16' E 103°51'0 0.0
2014-Jul-17 12:26N 01°16' E 103°51'0 0.0
2014-Jul-17 11:32N 01°16' E 103°51'0 0.0
2014-Jul-17 10:17N 01°16' E 103°51'0 0.0
2014-Jul-17 09:32N 01°16' E 103°51'0 0.0
2014-Jul-17 08:32N 01°16' E 103°51'0 0.0
2014-Jul-17 07:32N 01°16' E 103°51'0 0.0
2014-Jul-17 06:32N 01°16' E 103°51'0 0.0
2014-Jul-17 05:32N 01°16' E 103°51'0 0.0
2014-Jul-17 04:32N 01°16' E 103°51'0 0.0
2014-Jul-17 03:32N 01°16' E 103°51'0 0.0
2014-Jul-17 02:32N 01°16' E 103°51'0 0.0
2014-Jul-17 01:32N 01°16' E 103°51'0 0.0
2014-Jul-17 00:32N 01°16' E 103°51'0 0.0
2014-Jul-16 23:32N 01°16' E 103°51'0 0.0
2014-Jul-16 22:32N 01°16' E 103°51'0 0.0
2014-Jul-16 21:32N 01°16' E 103°51'0 0.1
2014-Jul-16 20:33N 01°16' E 103°51'4 3.8
2014-Jul-16 19:33N 01°14' E 103°54'6 6.1
2014-Jul-16 18:33N 01°16' E 104°00'8 7.6
2014-Jul-16 17:33N 01°17' E 104°08'  

Dump ship's entire track history